KRNO/RNO METAR and TAF weather

Enter ICAO airport designator
Station Type Date Time Source
KRNO METAR 2020/09/20 09:55 UTC NOAA

KRNO 200955Z 22003KT 10SM FEW200 12/00 A3011 RMK AO2 SLP155 T01220000


Station Type Date Time Source
KRNO Decoded METAR 2020/09/20 09:55 UTC NOAA

RENO/TAHOE INTERNATIONAL AIRPORT, NV, United States (KRNO) 39-29N 119-46W 1342M
Sep 20, 2020 - 05:55 AM EDT / 2020.09.20 0955 UTC
Wind: from the SW (220 degrees) at 3 MPH (3 KT):0
Visibility: 10 mile(s):0
Sky conditions: mostly clear
Temperature: 54.0 F (12.2 C)
Dew Point: 32.0 F (0.0 C)
Relative Humidity: 43%
Pressure (altimeter): 30.11 in. Hg (1019 hPa)
ob: KRNO 200955Z 22003KT 10SM FEW200 12/00 A3011 RMK AO2 SLP155 T01220000
cycle: 10

Station Type Date Time Source
KRNO TAF 2020/09/20 06:22 UTC NOAA

TAF KRNO 200520Z 2006/2106 VRB04KT 6SM HZ SCT200
FM201500 00000KT 6SM HZ SCT250

Example: see airport list